Time;durP1;ratioP1;P1;durP2;ratioP2;P2;SDS_P1;SDS_P2;PMS_P1;PMS_P2;Temp;Humidity;BMP_temperature;BMP_pressure;BME280_temperature;BME280_humidity;BME280_pressure;Samples;Min_cycle;Max_cycle;Signal;HPM_P1;HPM_P2
2023/06/05 00:01:43;;;;;;;;;;;;;;;22.70;24.54;101387.19;5051972;28;19952;-57
2023/06/05 00:04:08;;;;;;;;;;;;;;;22.64;24.73;101385.47;5049950;28;19925;-64
2023/06/05 00:06:34;;;;;;;;;;;;;;;22.57;24.82;101391.09;5052904;28;19921;-52
2023/06/05 00:09:00;;;;;;;;;;;;;;;22.52;24.73;101392.94;5051030;28;19986;-46
2023/06/05 00:11:25;;;;;;;;;;;;;;;22.41;25.10;101390.03;5051721;28;19936;-45
2023/06/05 00:13:50;;;;;;;;;;;;;;;22.41;24.96;101391.94;5052440;28;19913;-44
2023/06/05 00:16:16;;;;;;;;;;;;;;;22.31;25.47;101395.34;5049934;28;19913;-46
2023/06/05 00:18:43;;;;;;;;;;;;;;;22.22;24.99;101389.44;5051755;28;19970;-49
2023/06/05 00:21:09;;;;;;;;;;;;;;;22.18;25.17;101392.94;5050419;28;20000;-60
2023/06/05 00:23:34;;;;;;;;;;;;;;;22.16;25.73;101404.13;5051844;28;20011;-62
2023/06/05 00:25:59;;;;;;;;;;;;;;;22.08;26.10;101390.00;5051431;28;19920;-45
2023/06/05 00:28:25;;;;;;;;;;;;;;;21.99;26.34;101387.69;5051671;28;20007;-45
2023/06/05 00:30:51;;;;;;;;;;;;;;;21.96;26.24;101388.19;5051456;28;20354;-46
2023/06/05 00:33:16;;;;;;;;;;;;;;;21.91;26.65;101395.47;5041002;28;20019;-52
2023/06/05 00:35:42;;;;;;;;;;;;;;;21.89;26.92;101386.69;5031082;28;20446;-54
2023/06/05 00:38:07;;;;;;;;;;;;;;;21.80;27.05;101384.38;5031342;28;19920;-54
2023/06/05 00:40:32;;;;;;;;;;;;;;;21.76;27.16;101382.34;5031485;28;19913;-53
2023/06/05 00:42:58;;;;;;;;;;;;;;;21.69;26.79;101381.66;5036562;28;19920;-56
2023/06/05 00:45:23;;;;;;;;;;;;;;;21.67;27.53;101394.75;5051299;28;20304;-55
2023/06/05 00:47:49;;;;;;;;;;;;;;;21.71;26.92;101394.03;5052232;28;20391;-56
2023/06/05 00:50:15;;;;;;;;;;;;;;;21.68;26.92;101397.25;5041855;28;19917;-53
2023/06/05 00:52:41;;;;;;;;;;;;;;;21.64;27.67;101396.09;5042450;28;19913;-54
2023/06/05 00:55:07;;;;;;;;;;;;;;;21.56;27.35;101391.84;5041064;28;19913;-51
2023/06/05 00:57:34;;;;;;;;;;;;;;;21.49;27.26;101393.03;5041999;28;19913;-52
2023/06/05 01:00:01;;;;;;;;;;;;;;;21.42;27.58;101394.00;5042634;28;19913;-52
2023/06/05 01:02:27;;;;;;;;;;;;;;;21.42;27.10;101387.72;5043852;28;19928;-54
2023/06/05 01:04:52;;;;;;;;;;;;;;;21.40;27.60;101398.06;5039119;28;20042;-55
2023/06/05 01:07:18;;;;;;;;;;;;;;;21.44;27.42;101397.34;5049422;28;20268;-54
2023/06/05 01:09:44;;;;;;;;;;;;;;;21.30;27.52;101387.72;5055100;28;20317;-53
2023/06/05 01:12:12;;;;;;;;;;;;;;;21.25;27.88;101393.13;5071922;28;19912;-51
2023/06/05 01:14:40;;;;;;;;;;;;;;;21.16;28.19;101395.38;5072313;28;19913;-49
2023/06/05 01:17:08;;;;;;;;;;;;;;;21.11;28.33;101391.72;5075961;28;19962;-53
2023/06/05 01:19:33;;;;;;;;;;;;;;;21.05;27.44;101388.06;5076017;28;19913;-52
2023/06/05 01:21:59;;;;;;;;;;;;;;;20.98;28.13;101388.16;5058020;28;20384;-56
2023/06/05 01:24:27;;;;;;;;;;;;;;;20.92;28.44;101391.06;5075862;28;19923;-53
2023/06/05 01:27:00;;;;;;;;;;;;;;;20.91;27.93;101392.94;5076112;28;19912;-51
2023/06/05 01:29:48;;;;;;;;;;;;;;;20.87;27.75;101381.66;5076388;28;20014;-54
2023/06/05 01:32:21;;;;;;;;;;;;;;;20.88;27.99;101387.97;5075865;28;19959;-49
2023/06/05 01:34:48;;;;;;;;;;;;;;;20.79;28.43;101395.69;5075728;28;19912;-54
2023/06/05 01:37:18;;;;;;;;;;;;;;;20.82;28.35;101395.22;5075973;28;19912;-51
2023/06/05 01:39:45;;;;;;;;;;;;;;;20.74;28.20;101394.75;5066085;28;19958;-54
2023/06/05 01:42:11;;;;;;;;;;;;;;;20.63;28.70;101391.78;5055873;28;19913;-53
2023/06/05 01:44:36;;;;;;;;;;;;;;;20.58;28.58;101388.06;5055530;28;19917;-51
2023/06/05 01:47:02;;;;;;;;;;;;;;;20.52;29.04;101386.28;5055468;28;19939;-54
2023/06/05 01:49:27;;;;;;;;;;;;;;;20.49;28.93;101391.16;5055443;28;19912;-56
2023/06/05 01:51:54;;;;;;;;;;;;;;;20.44;28.70;101385.56;5055386;28;19966;-55
2023/06/05 01:54:23;;;;;;;;;;;;;;;20.52;28.81;101383.56;5055315;28;20349;-54
2023/06/05 01:56:49;;;;;;;;;;;;;;;20.54;28.99;101387.75;5055354;28;20557;-55
2023/06/05 01:59:15;;;;;;;;;;;;;;;20.48;29.25;101388.66;5054962;28;19927;-53
2023/06/05 02:01:43;;;;;;;;;;;;;;;20.46;29.01;101394.34;5054628;28;19917;-51
2023/06/05 02:04:09;;;;;;;;;;;;;;;20.43;29.31;101388.53;5055015;28;20004;-55
2023/06/05 02:06:42;;;;;;;;;;;;;;;20.42;29.49;101395.91;5055123;28;19995;-55
2023/06/05 02:09:09;;;;;;;;;;;;;;;20.40;29.51;101397.22;5062180;28;19912;-55
2023/06/05 02:11:37;;;;;;;;;;;;;;;20.31;29.83;101397.53;5075275;28;20296;-53
2023/06/05 02:14:03;;;;;;;;;;;;;;;20.31;29.24;101391.28;5074897;28;19931;-53
2023/06/05 02:16:28;;;;;;;;;;;;;;;20.30;29.72;101395.91;5075063;28;19966;-56
2023/06/05 02:18:57;;;;;;;;;;;;;;;20.26;29.21;101391.13;5075145;28;19913;-56
2023/06/05 02:21:23;;;;;;;;;;;;;;;20.26;29.09;101393.88;5075124;28;19916;-54
2023/06/05 02:23:51;;;;;;;;;;;;;;;20.19;29.37;101399.44;5074984;28;20003;-55
2023/06/05 02:26:18;;;;;;;;;;;;;;;20.16;29.24;101390.91;5074647;28;19952;-54
2023/06/05 02:28:43;;;;;;;;;;;;;;;20.10;29.90;101398.13;5074837;28;19935;-55
2023/06/05 02:31:09;;;;;;;;;;;;;;;20.14;29.67;101385.69;5074405;28;20361;-53
2023/06/05 02:33:34;;;;;;;;;;;;;;;20.09;30.26;101393.72;5074285;28;19924;-51
2023/06/05 02:35:59;;;;;;;;;;;;;;;20.00;30.07;101393.25;5064616;28;20014;-51
2023/06/05 02:38:24;;;;;;;;;;;;;;;19.96;30.59;101397.50;5054590;28;19913;-49
2023/06/05 02:40:49;;;;;;;;;;;;;;;19.92;30.48;101402.56;5054632;28;19916;-50
2023/06/05 02:43:17;;;;;;;;;;;;;;;19.91;30.18;101400.09;5054383;28;19917;-48
2023/06/05 02:45:42;;;;;;;;;;;;;;;19.90;30.25;101399.25;5054554;28;20274;-51
2023/06/05 02:48:07;;;;;;;;;;;;;;;19.88;30.67;101389.66;5054345;28;19913;-52
2023/06/05 02:50:33;;;;;;;;;;;;;;;19.87;30.64;101393.44;5054510;28;19920;-50
2023/06/05 02:52:58;;;;;;;;;;;;;;;19.82;30.66;101391.41;5054460;28;20349;-53
2023/06/05 02:55:23;;;;;;;;;;;;;;;19.81;30.20;101400.66;5054070;28;20544;-51
2023/06/05 02:57:49;;;;;;;;;;;;;;;19.81;30.27;101395.19;5053974;28;19920;-51
2023/06/05 03:00:16;;;;;;;;;;;;;;;19.79;30.21;101396.50;5054042;28;19913;-55
2023/06/05 03:02:42;;;;;;;;;;;;;;;19.83;30.57;101393.06;5053241;28;20008;-50
2023/06/05 03:05:07;;;;;;;;;;;;;;;19.84;30.21;101393.91;5053837;28;20007;-55
2023/06/05 03:07:33;;;;;;;;;;;;;;;19.80;30.79;101399.00;5054178;28;19912;-55
2023/06/05 03:09:59;;;;;;;;;;;;;;;19.84;30.45;101392.00;5067723;28;19913;-54
2023/06/05 03:12:25;;;;;;;;;;;;;;;19.85;30.88;101392.84;5073918;28;19920;-54
2023/06/05 03:14:50;;;;;;;;;;;;;;;19.85;30.32;101399.13;5074036;28;19946;-55
2023/06/05 03:17:16;;;;;;;;;;;;;;;19.84;30.50;101400.19;5073728;28;19913;-54
2023/06/05 03:19:41;;;;;;;;;;;;;;;19.86;30.60;101403.50;5073779;28;19981;-55
2023/06/05 03:22:07;;;;;;;;;;;;;;;19.86;30.88;101408.97;5073635;28;19917;-52
2023/06/05 03:24:32;;;;;;;;;;;;;;;19.87;30.73;101407.91;5073499;28;19917;-55
2023/06/05 03:26:57;;;;;;;;;;;;;;;19.92;30.29;101409.94;5073440;28;19913;-54
2023/06/05 03:29:22;;;;;;;;;;;;;;;19.88;30.75;101411.47;5073073;28;19919;-56
2023/06/05 03:31:48;;;;;;;;;;;;;;;19.87;31.06;101412.50;5067176;28;19916;-54
2023/06/05 03:34:13;;;;;;;;;;;;;;;19.90;30.49;101412.06;5052988;28;20007;-56
2023/06/05 03:36:39;;;;;;;;;;;;;;;19.98;30.67;101413.63;5053111;28;20035;-54
2023/06/05 03:39:05;;;;;;;;;;;;;;;20.06;30.97;101418.75;5052549;28;19917;-56
2023/06/05 03:41:30;;;;;;;;;;;;;;;20.17;30.99;101412.50;5052988;28;19913;-56
2023/06/05 03:43:56;;;;;;;;;;;;;;;20.28;30.50;101408.94;5053504;28;19917;-56
2023/06/05 03:46:23;;;;;;;;;;;;;;;20.25;30.65;101403.97;5052981;28;19936;-52
2023/06/05 03:48:49;;;;;;;;;;;;;;;20.18;30.31;101411.41;5053242;28;19960;-54
2023/06/05 03:51:18;;;;;;;;;;;;;;;20.22;30.56;101415.31;5053001;28;20031;-55
2023/06/05 03:53:44;;;;;;;;;;;;;;;20.29;30.72;101407.03;5052833;28;20361;-53
2023/06/05 03:56:09;;;;;;;;;;;;;;;20.37;30.86;101408.59;5051948;28;20008;-52
2023/06/05 03:58:35;;;;;;;;;;;;;;;20.39;30.71;101403.72;5052685;28;20324;-55
2023/06/05 04:01:00;;;;;;;;;;;;;;;20.42;30.75;101401.34;5052095;28;19917;-56
2023/06/05 04:03:27;;;;;;;;;;;;;;;20.39;30.29;101395.53;5052748;28;19924;-55
2023/06/05 04:05:52;;;;;;;;;;;;;;;20.37;30.32;101393.03;5035085;28;19923;-56
2023/06/05 04:08:17;;;;;;;;;;;;;;;20.44;30.88;101390.22;5052606;28;19916;-55
2023/06/05 04:10:43;;;;;;;;;;;;;;;20.46;30.06;101394.34;5072732;28;19912;-52
2023/06/05 04:13:08;;;;;;;;;;;;;;;20.55;30.14;101383.09;5072853;28;19951;-52
2023/06/05 04:15:33;;;;;;;;;;;;;;;20.60;30.35;101391.41;5072894;28;20007;-49
2023/06/05 04:17:59;;;;;;;;;;;;;;;20.63;29.71;101386.31;5073102;28;20349;-54
2023/06/05 04:20:24;;;;;;;;;;;;;;;20.64;30.03;101393.44;5072887;28;20254;-55
2023/06/05 04:22:49;;;;;;;;;;;;;;;20.62;30.04;101395.59;5073001;28;19917;-54
2023/06/05 04:25:15;;;;;;;;;;;;;;;20.58;30.41;101391.66;5072792;28;20424;-53
2023/06/05 04:27:41;;;;;;;;;;;;;;;20.57;30.54;101394.59;5069970;28;19921;-56
2023/06/05 04:30:07;;;;;;;;;;;;;;;20.53;30.54;101402.44;5052734;28;20007;-54
2023/06/05 04:32:36;;;;;;;;;;;;;;;20.62;30.53;101403.78;5052343;28;20009;-51
2023/06/05 04:35:02;;;;;;;;;;;;;;;20.69;29.91;101393.56;5052355;28;19916;-53
2023/06/05 04:37:28;;;;;;;;;;;;;;;20.76;29.77;101401.63;5052313;28;19979;-56
2023/06/05 04:39:54;;;;;;;;;;;;;;;20.71;30.04;101395.22;5034440;28;19917;-55
2023/06/05 04:42:21;;;;;;;;;;;;;;;20.75;30.39;101388.22;5052261;28;19912;-54
2023/06/05 04:44:53;;;;;;;;;;;;;;;20.75;31.57;101397.25;5052213;28;19917;-52
2023/06/05 04:47:19;;;;;;;;;;;;;;;20.76;31.30;101392.59;5052420;28;19927;-54
2023/06/05 04:49:47;;;;;;;;;;;;;;;20.88;30.91;101386.06;5052172;28;19913;-52
2023/06/05 04:52:12;;;;;;;;;;;;;;;20.95;31.60;101385.94;5047418;28;19956;-50
2023/06/05 04:54:39;;;;;;;;;;;;;;;20.96;31.42;101379.41;5032233;28;20329;-54
2023/06/05 04:57:05;;;;;;;;;;;;;;;20.94;31.82;101378.81;5032316;28;19953;-55
2023/06/05 04:59:32;;;;;;;;;;;;;;;21.03;31.03;101377.38;5032041;28;20012;-55
2023/06/05 05:01:59;;;;;;;;;;;;;;;21.09;32.01;101389.22;5031727;28;19964;-55
2023/06/05 05:04:25;;;;;;;;;;;;;;;21.10;31.82;101392.78;5041769;28;19952;-53
2023/06/05 05:06:51;;;;;;;;;;;;;;;21.16;31.51;101389.09;5052066;28;19962;-53
2023/06/05 05:09:16;;;;;;;;;;;;;;;21.11;32.40;101402.66;5059897;28;19913;-55
2023/06/05 05:11:41;;;;;;;;;;;;;;;21.22;32.02;101394.41;5072060;28;20388;-55
2023/06/05 05:14:07;;;;;;;;;;;;;;;21.24;32.31;101399.63;5072128;28;20002;-54
2023/06/05 05:16:32;;;;;;;;;;;;;;;21.07;33.10;101400.38;5072217;28;19951;-56
2023/06/05 05:18:58;;;;;;;;;;;;;;;21.19;32.77;101402.25;5072066;28;19931;-55
2023/06/05 05:21:23;;;;;;;;;;;;;;;21.13;32.87;101404.06;5072150;28;19991;-52
2023/06/05 05:23:48;;;;;;;;;;;;;;;21.18;33.18;101411.53;5069875;28;19928;-50
2023/06/05 05:26:14;;;;;;;;;;;;;;;21.17;32.95;101401.69;5032835;28;19917;-52
2023/06/05 05:28:39;;;;;;;;;;;;;;;21.16;33.42;101403.59;5051775;28;19916;-55
2023/06/05 05:31:05;;;;;;;;;;;;;;;21.22;33.25;101399.88;5051846;28;19920;-50
2023/06/05 05:33:30;;;;;;;;;;;;;;;21.25;32.87;101404.03;5051839;28;20333;-57
2023/06/05 05:35:56;;;;;;;;;;;;;;;21.26;33.25;101392.84;5051988;28;19919;-55
2023/06/05 05:38:21;;;;;;;;;;;;;;;21.31;32.84;101396.78;5051959;28;19983;-55
2023/06/05 05:40:46;;;;;;;;;;;;;;;21.43;32.53;101392.94;5052013;28;20345;-52
2023/06/05 05:43:12;;;;;;;;;;;;;;;21.41;33.22;101400.56;5051515;28;19952;-52
2023/06/05 05:45:39;;;;;;;;;;;;;;;21.50;33.66;101397.44;5051717;28;19967;-53
2023/06/05 05:48:04;;;;;;;;;;;;;;;21.48;33.76;101394.94;5044296;28;19913;-56
2023/06/05 05:50:29;;;;;;;;;;;;;;;21.44;33.68;101396.50;5032038;28;20366;-54
2023/06/05 05:52:55;;;;;;;;;;;;;;;21.50;33.31;101392.81;5031712;28;20405;-55
2023/06/05 05:55:20;;;;;;;;;;;;;;;21.32;35.08;101401.16;5032089;28;19913;-53
2023/06/05 05:57:46;;;;;;;;;;;;;;;21.43;34.04;101400.28;5031409;28;19913;-54
2023/06/05 06:00:12;;;;;;;;;;;;;;;21.54;34.32;101396.69;5031707;28;19924;-55
2023/06/05 06:02:41;;;;;;;;;;;;;;;21.61;34.54;101396.56;5034476;28;19917;-54
2023/06/05 06:05:06;;;;;;;;;;;;;;;21.66;33.96;101399.41;5050716;28;19917;-53
2023/06/05 06:07:32;;;;;;;;;;;;;;;21.74;34.15;101393.53;5055195;28;20646;-56
2023/06/05 06:09:58;;;;;;;;;;;;;;;21.79;34.41;101393.63;5068823;28;19913;-55
2023/06/05 06:12:24;;;;;;;;;;;;;;;21.85;33.28;101389.91;5075192;28;20280;-49
2023/06/05 06:14:49;;;;;;;;;;;;;;;21.91;33.56;101395.47;5075434;28;19938;-55
2023/06/05 06:17:15;;;;;;;;;;;;;;;21.88;32.72;101387.75;5057016;28;19913;-51
2023/06/05 06:19:42;;;;;;;;;;;;;;;21.88;33.30;101390.47;5075036;28;19980;-50
2023/06/05 06:22:13;;;;;;;;;;;;;;;21.88;32.37;101385.00;5056249;28;20289;-55
2023/06/05 06:24:39;;;;;;;;;;;;;;;21.78;33.45;101386.47;5054795;28;19916;-55
2023/06/05 06:27:04;;;;;;;;;;;;;;;21.86;32.56;101396.22;5054367;28;19913;-54
2023/06/05 06:29:31;;;;;;;;;;;;;;;21.95;31.95;101391.16;5054738;28;19913;-49
2023/06/05 06:31:56;;;;;;;;;;;;;;;22.02;32.20;101392.66;5054886;28;19967;-55
2023/06/05 06:34:22;;;;;;;;;;;;;;;21.98;31.89;101385.19;5054779;28;19921;-53
2023/06/05 06:36:47;;;;;;;;;;;;;;;22.11;32.03;101386.78;5054662;28;19913;-53
2023/06/05 06:39:12;;;;;;;;;;;;;;;21.91;32.59;101387.25;5054387;28;19936;-51
2023/06/05 06:41:38;;;;;;;;;;;;;;;22.02;31.98;101386.34;5054407;28;19920;-57
2023/06/05 06:44:04;;;;;;;;;;;;;;;22.06;32.01;101386.69;5054252;28;20019;-56
2023/06/05 06:46:30;;;;;;;;;;;;;;;22.09;31.54;101386.22;5054290;28;19965;-52
2023/06/05 06:48:56;;;;;;;;;;;;;;;22.11;31.65;101387.59;5054415;28;19913;-54
2023/06/05 06:51:22;;;;;;;;;;;;;;;21.97;31.92;101386.25;5054554;28;20027;-56
2023/06/05 06:53:47;;;;;;;;;;;;;;;22.08;31.42;101388.09;5054325;28;19920;-55
2023/06/05 06:56:15;;;;;;;;;;;;;;;22.09;31.64;101391.69;5054179;28;19913;-55
2023/06/05 06:58:40;;;;;;;;;;;;;;;22.19;31.56;101384.47;5054124;28;19967;-54
2023/06/05 07:01:06;;;;;;;;;;;;;;;22.24;31.25;101389.19;5053319;28;19913;-56
2023/06/05 07:03:31;;;;;;;;;;;;;;;22.36;31.55;101394.59;5053901;28;19921;-54
2023/06/05 07:05:56;;;;;;;;;;;;;;;22.40;30.70;101382.09;5054001;28;19913;-54
2023/06/05 07:08:22;;;;;;;;;;;;;;;22.46;30.44;101383.00;5054258;28;19916;-50
2023/06/05 07:10:47;;;;;;;;;;;;;;;22.46;31.31;101386.56;5073993;28;19959;-55
2023/06/05 07:13:12;;;;;;;;;;;;;;;22.53;30.87;101384.47;5072944;28;20477;-55
2023/06/05 07:15:37;;;;;;;;;;;;;;;22.58;30.63;101379.09;5073834;28;19912;-54
2023/06/05 07:18:03;;;;;;;;;;;;;;;22.50;30.85;101386.88;5057600;28;19913;-52
2023/06/05 07:20:28;;;;;;;;;;;;;;;22.63;31.00;101391.19;5053490;28;19913;-56
2023/06/05 07:22:53;;;;;;;;;;;;;;;22.51;31.29;101389.38;5053380;28;19979;-54
2023/06/05 07:25:22;;;;;;;;;;;;;;;22.55;30.92;101385.03;5053169;28;20301;-51
2023/06/05 07:27:47;;;;;;;;;;;;;;;22.74;31.15;101382.84;5053312;28;19936;-55
2023/06/05 07:30:13;;;;;;;;;;;;;;;22.70;31.24;101386.34;5053264;28;19913;-54
2023/06/05 07:32:40;;;;;;;;;;;;;;;22.58;30.91;101390.03;5035180;28;19912;-52
2023/06/05 07:35:06;;;;;;;;;;;;;;;22.71;31.26;101383.34;5052983;28;19943;-54
2023/06/05 07:37:31;;;;;;;;;;;;;;;22.70;31.62;101383.63;5053642;28;20376;-54
2023/06/05 07:39:57;;;;;;;;;;;;;;;22.85;30.95;101383.81;5053397;28;20006;-51
2023/06/05 07:42:22;;;;;;;;;;;;;;;22.86;31.40;101377.25;5053506;28;20023;-54
2023/06/05 07:44:48;;;;;;;;;;;;;;;22.89;31.28;101390.44;5053408;28;20246;-53
2023/06/05 07:47:13;;;;;;;;;;;;;;;22.92;31.62;101383.63;5053390;28;19917;-55
2023/06/05 07:49:38;;;;;;;;;;;;;;;22.98;31.46;101371.66;5053052;28;19913;-51
2023/06/05 07:52:04;;;;;;;;;;;;;;;23.12;31.47;101374.88;5053222;28;19913;-55
2023/06/05 07:54:29;;;;;;;;;;;;;;;23.29;31.12;101372.03;5053179;28;20345;-53
2023/06/05 07:56:57;;;;;;;;;;;;;;;23.28;31.20;101381.38;5053214;28;19995;-55
2023/06/05 07:59:27;;;;;;;;;;;;;;;23.00;31.12;101384.00;5052474;28;19959;-54
2023/06/05 08:01:53;;;;;;;;;;;;;;;23.28;31.20;101375.88;5052336;28;19917;-52
2023/06/05 08:04:19;;;;;;;;;;;;;;;23.39;30.71;101374.91;5052509;28;19923;-53
2023/06/05 08:06:45;;;;;;;;;;;;;;;23.53;30.71;101375.31;5052568;28;19912;-55
2023/06/05 08:09:10;;;;;;;;;;;;;;;23.66;30.68;101374.09;5059974;28;20284;-50
2023/06/05 08:11:41;;;;;;;;;;;;;;;23.54;30.32;101371.50;5072656;28;19912;-52
2023/06/05 08:14:06;;;;;;;;;;;;;;;23.65;30.25;101377.94;5057878;28;20395;-51
2023/06/05 08:16:32;;;;;;;;;;;;;;;23.73;30.16;101377.44;5052843;28;19917;-53
2023/06/05 08:18:57;;;;;;;;;;;;;;;23.76;30.10;101372.28;5052992;28;19935;-53
2023/06/05 08:21:23;;;;;;;;;;;;;;;23.88;30.62;101374.88;5052529;28;19913;-55
2023/06/05 08:23:48;;;;;;;;;;;;;;;23.88;29.84;101365.81;5034412;28;19924;-50
2023/06/05 08:26:13;;;;;;;;;;;;;;;23.96;29.91;101365.38;5052745;28;19919;-51
2023/06/05 08:28:42;;;;;;;;;;;;;;;23.94;29.32;101364.78;5052530;28;19913;-52
2023/06/05 08:31:08;;;;;;;;;;;;;;;23.94;30.04;101362.88;5051075;28;19919;-51
2023/06/05 08:33:34;;;;;;;;;;;;;;;24.22;29.20;101360.91;5052670;28;19913;-52
2023/06/05 08:35:59;;;;;;;;;;;;;;;24.48;29.04;101350.91;5052366;28;19962;-51
2023/06/05 08:38:25;;;;;;;;;;;;;;;24.46;28.36;101355.00;5052417;28;19913;-55
2023/06/05 08:41:00;;;;;;;;;;;;;;;24.45;27.89;101356.09;5052590;28;19974;-55
2023/06/05 08:43:26;;;;;;;;;;;;;;;24.66;27.44;101357.91;5052406;28;20030;-53
2023/06/05 08:45:52;;;;;;;;;;;;;;;24.81;27.53;101354.41;5052204;28;19928;-54
2023/06/05 08:48:20;;;;;;;;;;;;;;;24.82;27.41;101353.31;5052260;28;19936;-50
2023/06/05 08:50:46;;;;;;;;;;;;;;;24.92;26.95;101349.78;5052262;28;19913;-53
2023/06/05 08:53:12;;;;;;;;;;;;;;;24.98;27.45;101358.88;5050848;28;19917;-52
2023/06/05 08:55:38;;;;;;;;;;;;;;;25.00;26.78;101340.19;5052520;28;20392;-54
2023/06/05 08:58:04;;;;;;;;;;;;;;;25.04;25.48;101344.06;5051945;28;19925;-52
2023/06/05 09:00:29;;;;;;;;;;;;;;;25.07;25.74;101338.03;5052472;28;19960;-55
2023/06/05 09:02:56;;;;;;;;;;;;;;;25.10;25.64;101335.56;5033343;28;20318;-54
2023/06/05 09:05:21;;;;;;;;;;;;;;;25.23;25.50;101345.25;5052029;28;20354;-52
2023/06/05 09:07:46;;;;;;;;;;;;;;;25.26;26.25;101336.47;5051982;28;19955;-50
2023/06/05 09:10:25;;;;;;;;;;;;;;;25.37;25.69;101333.72;5054285;28;20016;-54
2023/06/05 09:12:59;;;;;;;;;;;;;;;25.42;26.31;101328.25;5052021;28;19948;-55
2023/06/05 09:15:26;;;;;;;;;;;;;;;25.43;25.90;101324.41;5052076;28;19940;-54
2023/06/05 09:18:08;;;;;;;;;;;;;;;25.46;26.81;101329.34;5051954;28;19912;-53
2023/06/05 09:20:34;;;;;;;;;;;;;;;25.40;26.68;101334.00;5052063;28;19999;-49
2023/06/05 09:23:00;;;;;;;;;;;;;;;25.66;26.56;101315.63;5052076;28;19921;-53
2023/06/05 09:25:28;;;;;;;;;;;;;;;25.87;26.50;101323.88;5050766;28;20349;-51
2023/06/05 09:28:14;;;;;;;;;;;;;;;26.00;26.22;101328.03;5052009;28;19913;-53
2023/06/05 09:30:58;;;;;;;;;;;;;;;26.12;25.89;101325.81;5051440;28;19940;-54
2023/06/05 09:33:25;;;;;;;;;;;;;;;26.16;25.48;101326.09;5051738;28;20334;-53
2023/06/05 09:36:06;;;;;;;;;;;;;;;26.27;25.71;101320.28;5052739;28;19963;-55
2023/06/05 09:38:32;;;;;;;;;;;;;;;26.32;25.59;101327.72;5056179;28;19920;-55
2023/06/05 09:41:10;;;;;;;;;;;;;;;26.39;25.54;101316.41;5055689;28;19913;-54
2023/06/05 09:43:36;;;;;;;;;;;;;;;26.46;24.80;101312.25;5055627;28;20015;-52
2023/06/05 09:46:09;;;;;;;;;;;;;;;26.56;24.98;101313.31;5055408;28;20522;-54
2023/06/05 09:48:36;;;;;;;;;;;;;;;26.57;25.18;101307.53;5055448;28;19912;-54
2023/06/05 09:51:09;;;;;;;;;;;;;;;26.85;25.04;101313.53;5055272;28;19999;-56
2023/06/05 09:53:37;;;;;;;;;;;;;;;26.97;24.56;101310.47;5055329;28;19920;-56
2023/06/05 09:56:03;;;;;;;;;;;;;;;27.12;24.60;101315.88;5055182;28;19958;-56
2023/06/05 09:58:28;;;;;;;;;;;;;;;27.21;24.89;101302.31;5037274;28;20358;-56
2023/06/05 10:00:56;;;;;;;;;;;;;;;27.29;24.34;101303.69;5054414;28;19923;-53
2023/06/05 10:03:21;;;;;;;;;;;;;;;27.19;23.99;101302.59;5055251;28;19917;-52
2023/06/05 10:05:47;;;;;;;;;;;;;;;27.08;24.21;101305.69;5020770;28;20382;-56
2023/06/05 10:08:15;;;;;;;;;;;;;;;27.27;23.97;101292.94;5055278;28;19917;-56
2023/06/05 10:10:41;;;;;;;;;;;;;;;27.27;24.29;101292.13;5074412;28;19912;-56
2023/06/05 10:13:06;;;;;;;;;;;;;;;27.60;23.90;101296.00;5074770;28;20431;-54
2023/06/05 10:15:32;;;;;;;;;;;;;;;27.53;23.85;101296.31;5075018;28;19916;-51
2023/06/05 10:17:58;;;;;;;;;;;;;;;27.80;24.54;101278.44;5075211;28;19912;-55
2023/06/05 10:20:23;;;;;;;;;;;;;;;28.09;23.78;101278.47;5074846;28;19919;-55
2023/06/05 10:22:50;;;;;;;;;;;;;;;28.18;23.00;101275.91;5074809;28;19919;-53
2023/06/05 10:25:18;;;;;;;;;;;;;;;28.45;22.40;101278.06;5075025;28;19919;-50
2023/06/05 10:28:02;;;;;;;;;;;;;;;28.75;22.33;101265.84;5074933;28;19944;-53
2023/06/05 10:30:36;;;;;;;;;;;;;;;28.95;21.47;101267.47;5074999;28;19913;-50
2023/06/05 10:33:20;;;;;;;;;;;;;;;29.22;21.82;101262.44;5059143;28;19916;-53
2023/06/05 10:35:45;;;;;;;;;;;;;;;29.40;21.23;101260.75;5053848;28;19913;-52
2023/06/05 10:38:24;;;;;;;;;;;;;;;29.17;21.25;101265.28;5054870;28;19962;-51
2023/06/05 10:40:53;;;;;;;;;;;;;;;29.54;20.98;101272.72;5054497;28;19912;-54
2023/06/05 10:43:29;;;;;;;;;;;;;;;29.78;21.10;101267.06;5054435;28;20400;-54
2023/06/05 10:45:55;;;;;;;;;;;;;;;29.91;20.65;101257.97;5054634;28;19986;-50
2023/06/05 10:48:21;;;;;;;;;;;;;;;29.92;20.43;101265.16;5054372;28;19920;-49
2023/06/05 10:50:46;;;;;;;;;;;;;;;30.03;20.20;101259.41;5054299;28;19958;-52
2023/06/05 10:53:30;;;;;;;;;;;;;;;30.10;20.07;101254.31;5054381;28;20018;-51
2023/06/05 10:55:55;;;;;;;;;;;;;;;30.18;19.38;101259.16;5054169;28;19935;-54
2023/06/05 10:58:23;;;;;;;;;;;;;;;30.55;20.14;101253.72;5053885;28;19920;-52
2023/06/05 11:01:08;;;;;;;;;;;;;;;30.72;19.90;101248.38;5053595;28;20025;-49
2023/06/05 11:03:52;;;;;;;;;;;;;;;30.62;18.74;101254.94;5036712;28;19940;-55
2023/06/05 11:06:17;;;;;;;;;;;;;;;31.02;19.07;101243.28;5053754;28;19912;-53
2023/06/05 11:08:42;;;;;;;;;;;;;;;31.26;19.13;101252.13;5057280;28;19920;-52
2023/06/05 11:11:09;;;;;;;;;;;;;;;31.42;18.51;101238.66;5074008;28;19913;-53
2023/06/05 11:13:54;;;;;;;;;;;;;;;31.71;18.45;101228.28;5073906;28;19912;-51
2023/06/05 11:16:33;;;;;;;;;;;;;;;31.75;18.22;101235.63;5073090;28;19913;-56
2023/06/05 11:19:17;;;;;;;;;;;;;;;32.03;18.13;101236.28;5073050;28;19916;-53
2023/06/05 11:22:00;;;;;;;;;;;;;;;32.25;18.03;101228.22;5072985;28;20369;-55
2023/06/05 11:24:26;;;;;;;;;;;;;;;32.68;18.01;101225.53;5073128;28;19916;-55
2023/06/05 11:26:52;;;;;;;;;;;;;;;32.90;17.35;101230.16;5073345;28;19916;-57
2023/06/05 11:29:17;;;;;;;;;;;;;;;33.02;17.28;101225.88;5057445;28;19970;-56
2023/06/05 11:31:43;;;;;;;;;;;;;;;33.28;16.78;101214.75;5053617;28;19913;-54
2023/06/05 11:34:13;;;;;;;;;;;;;;;33.28;16.60;101226.72;5053495;28;19912;-56
2023/06/05 11:36:38;;;;;;;;;;;;;;;33.68;16.05;101234.06;5053538;28;19913;-54
2023/06/05 11:39:03;;;;;;;;;;;;;;;33.90;16.43;101219.88;5053555;28;19913;-55
2023/06/05 11:41:29;;;;;;;;;;;;;;;34.27;15.83;101219.41;5053213;28;19913;-55
2023/06/05 11:43:56;;;;;;;;;;;;;;;34.53;15.54;101222.03;5053468;28;19924;-55
2023/06/05 11:46:35;;;;;;;;;;;;;;;34.35;15.61;101226.09;5053314;28;19961;-56
2023/06/05 11:49:00;;;;;;;;;;;;;;;34.45;15.33;101225.69;5053366;28;19920;-55
2023/06/05 11:51:31;;;;;;;;;;;;;;;34.46;15.73;101222.56;5052979;28;20016;-54
2023/06/05 11:53:59;;;;;;;;;;;;;;;34.68;15.85;101217.84;5053256;28;19927;-55
2023/06/05 11:56:27;;;;;;;;;;;;;;;34.96;15.58;101217.31;5053534;28;19920;-54
2023/06/05 11:58:52;;;;;;;;;;;;;;;35.24;15.46;101215.59;5052345;28;19954;-53
2023/06/05 12:01:21;;;;;;;;;;;;;;;35.75;15.67;101211.78;5052412;28;20389;-53
2023/06/05 12:03:47;;;;;;;;;;;;;;;35.93;14.99;101216.00;5052790;28;20454;-57
2023/06/05 12:06:13;;;;;;;;;;;;;;;35.95;14.20;101219.25;5052896;28;19917;-57
2023/06/05 12:08:39;;;;;;;;;;;;;;;35.98;14.92;101203.78;5055898;28;19919;-56
2023/06/05 12:11:19;;;;;;;;;;;;;;;36.00;15.18;101205.03;5073023;28;20003;-56
2023/06/05 12:13:54;;;;;;;;;;;;;;;36.40;15.01;101195.94;5073266;28;19916;-55
2023/06/05 12:16:31;;;;;;;;;;;;;;;36.33;14.84;101195.75;5072822;28;19912;-56
2023/06/05 12:18:57;;;;;;;;;;;;;;;36.66;14.95;101197.53;5072785;28;20004;-55
2023/06/05 12:21:23;;;;;;;;;;;;;;;36.93;15.55;101203.53;5072939;28;19971;-56
2023/06/05 12:23:49;;;;;;;;;;;;;;;37.16;15.25;101190.59;5069690;28;19920;-56
2023/06/05 12:26:15;;;;;;;;;;;;;;;37.31;14.55;101189.00;5052473;28;19913;-55
2023/06/05 12:28:41;;;;;;;;;;;;;;;37.52;14.53;101180.38;5052448;28;19920;-56
2023/06/05 12:31:06;;;;;;;;;;;;;;;38.00;14.81;101173.94;5052214;28;20258;-56
2023/06/05 12:33:32;;;;;;;;;;;;;;;38.57;13.91;101178.09;5052286;28;19912;-53
2023/06/05 12:36:03;;;;;;;;;;;;;;;39.07;13.26;101164.31;5052408;28;19951;-57